Chesapeake, VA

11:30 AM EDT on Octobre 31, 2014 (GMT -0400)
South Greenbrier | Change Station
CLOSE
Current Station
Personal Weather Stations
Location: Chesapeake, VA
Elevation: 33 ft
Nearby Weather Stations

Elev 33 ft 36.74 °N, 76.22 °W | Updated 47 seconds ago

Partly Cloudy
Partly Cloudy
59.5 °F
Feels Like 59.5 °F
N
3.0
Hangin Variable Hangin from NNW
Gusts 6.0 mph

Ngayon
High -- | Low -- °F
--% Chance of Precip.
Yesterday
High -- | Low -- °F
Precip. -- sa
7:27 AM 6:08 PM
Unang Quarter, 56% visible
Pwersa 29.91 sa
Paningin 10.0 milya
Mga Ulap Clear
Hamog 44 °F
Humidito 56%
Rainfall 0.00 sa
Snow Depth Not available.
UV 3 out of 12
Pollen .90 out of 12
Air Quality Not available.
Flu Activity Not available.
METAR KNFE 311456Z AUTO 01009KT 10SM CLR 17/07 A2990 RMK AO2 SLP127 T01670072 58013

More Conditions Fewer Conditions

Pwersa 29.91 sa
Paningin 10.0 milya
Mga Ulap Clear
Hamog 44 °F
Humidito 56%
Rainfall 0.00 sa
Snow Depth Not available.
UV 3 out of 12
Pollen .90 out of 12
Air Quality Not available.
Flu Activity Not available.
METAR KNFE 311456Z AUTO 01009KT 10SM CLR 17/07 A2990 RMK AO2 SLP127 T01670072 58013

More Conditions Fewer Conditions

10-Day Weather Forecast

Almanac

Astronomiya

Oct. 31, 2014 Rise Set
Actual Time
Civil Twilight
Nautical Twilight
Astronomical Twilight
Buwan
Length Of Visible Light
Haba ng Araw
Tomorrow will be .
, % of the Moon is Illuminated

Today's Extremes

State Highs State Lows

Community

WunderPhotos

Upload Photos

1,766,640 photos uploaded!

WunderBlogs® & News

Nearby

Air Quality

  Air Quality AQ Index Pollutant
Not available.

Snow Depth

Station Depth Elevation

Earthquake Activity

Siyudad Distance Mag. Time & Date
Minimum magnitude displayed is 2.5.

Coastal Water Temperatures

lugar Temparatura

Nearby Weather Stations